page 5406 of 1003886 registered users

eBook PostsUsers

  1. 0select97print registered @ 2013-01-14 03:19:16, last login @ 2013-01-14 03:19:16
  2. 0goalroad8 registered @ 2013-01-14 03:19:44, last login @ 2013-01-14 03:19:44
  3. 0sugarrelish69 registered @ 2013-01-14 03:27:09, last login @ 2013-01-14 03:27:09
  4. 0pipe49donkey registered @ 2013-01-14 03:29:52, last login @ 2013-01-14 03:29:52
  5. 0grip9piano registered @ 2013-01-14 03:31:06, last login @ 2013-01-14 03:31:06
  6. 0vesseltop05 registered @ 2013-01-14 03:31:26, last login @ 2013-01-14 03:31:26
  7. 0homecancer40 registered @ 2013-01-14 03:32:48, last login @ 2013-01-14 03:32:48
  8. 0coat67beaver registered @ 2013-01-14 03:34:26, last login @ 2013-01-14 03:34:26
  9. 0soccer58flute registered @ 2013-01-14 03:36:01, last login @ 2013-01-14 03:36:01
  10. 0gram4beam registered @ 2013-01-14 03:39:16, last login @ 2013-01-14 03:39:16
  11. 0dewskirt40 registered @ 2013-01-14 03:40:40, last login @ 2013-01-14 03:40:40
  12. 0love4form registered @ 2013-01-14 03:41:38, last login @ 2013-01-14 03:41:38
  13. 0sharkrabbit16 registered @ 2013-01-14 03:41:52, last login @ 2013-01-14 03:41:52
  14. 0pathanime4 registered @ 2013-01-14 03:44:07, last login @ 2013-01-14 03:44:07
  15. 0twigticket8 registered @ 2013-01-14 03:44:25, last login @ 2013-01-14 03:44:25
  16. 0asia16sofa registered @ 2013-01-14 03:45:57, last login @ 2013-01-14 03:45:57
  17. 0mask70cousin registered @ 2013-01-14 03:47:00, last login @ 2013-01-14 03:47:00
  18. 0galleysneeze10 registered @ 2013-01-14 03:50:04, last login @ 2013-01-14 03:50:04
  19. 0grain68cherry registered @ 2013-01-14 03:50:08, last login @ 2013-01-14 03:50:08
  20. 0canoecamp70 registered @ 2013-01-14 03:50:35, last login @ 2013-01-14 03:50:35
  21. 0washpaper07 registered @ 2013-01-14 03:51:41, last login @ 2013-01-14 03:51:41
  22. 0markindex79 registered @ 2013-01-14 03:52:33, last login @ 2013-01-14 03:52:33
  23. 0eggnog55knife registered @ 2013-01-14 03:53:24, last login @ 2013-01-14 03:53:24
  24. 0lathe15mom registered @ 2013-01-14 03:54:33, last login @ 2013-01-14 03:54:33
  25. 0blow00dream registered @ 2013-01-14 03:55:06, last login @ 2013-01-14 03:55:06
  26. 0attackmask0 registered @ 2013-01-14 03:58:40, last login @ 2013-01-14 03:58:40
  27. 0eel12tennis registered @ 2013-01-14 03:58:42, last login @ 2013-01-14 03:58:42
  28. 0spring9fire registered @ 2013-01-14 03:59:28, last login @ 2013-01-14 03:59:28
  29. 0canvas2trick registered @ 2013-01-14 04:01:13, last login @ 2013-01-14 04:01:13
  30. 0slipharbor81 registered @ 2013-01-14 04:02:07, last login @ 2013-01-14 04:02:07
  31. 0drake1bongo registered @ 2013-01-14 04:02:33, last login @ 2013-01-14 04:02:33
  32. 0irancook6 registered @ 2013-01-14 04:05:16, last login @ 2013-01-14 04:29:26
  33. 0handpatch9 registered @ 2013-01-14 04:10:17, last login @ 2013-01-14 04:10:17
  34. 0wax7mine registered @ 2013-01-14 04:10:35, last login @ 2013-01-14 04:10:35
  35. 0area37climb registered @ 2013-01-14 04:11:03, last login @ 2013-01-14 04:11:03
  36. 0flagicicle54 registered @ 2013-01-14 04:11:20, last login @ 2013-01-14 04:11:20
  37. 0elStray registered @ 2013-01-14 04:14:37, last login @ 2013-01-14 04:21:46
  38. 0column6light registered @ 2013-01-14 04:16:05, last login @ 2013-01-14 04:16:05
  39. 0peanutbody3 registered @ 2013-01-14 04:16:31, last login @ 2013-01-14 04:33:30
  40. 0canvascow62 registered @ 2013-01-14 04:16:46, last login @ 2013-01-14 04:16:46
  41. 0bayneed3 registered @ 2013-01-14 04:19:40, last login @ 2013-01-14 04:19:40
  42. 0yarn4whip registered @ 2013-01-14 04:20:15, last login @ 2013-01-14 04:20:15
  43. 0brazilcrop47 registered @ 2013-01-14 04:20:24, last login @ 2013-01-14 04:20:24
  44. 0tubcreek0 registered @ 2013-01-14 04:22:07, last login @ 2013-01-14 04:22:07
  45. 0Dumnflutt registered @ 2013-01-14 04:24:01, last login @ 2013-01-14 04:24:01
  46. 0OrangeFeather registered @ 2013-01-14 04:24:22, last login @ 2013-01-14 04:24:22
  47. 0peonyknee28 registered @ 2013-01-14 04:25:35, last login @ 2013-01-14 04:25:35
  48. 0dream5plane registered @ 2013-01-14 04:27:58, last login @ 2013-01-14 04:27:58
  49. 0firtimer2 registered @ 2013-01-14 04:29:53, last login @ 2013-01-14 04:29:53
  50. 0rock89sled registered @ 2013-01-14 04:30:16, last login @ 2013-01-14 04:30:16
  51. 0regretliquor7 registered @ 2013-01-14 04:30:26, last login @ 2013-01-14 04:30:26
  52. 0timeregg40 registered @ 2013-01-14 04:30:27, last login @ 2013-01-14 04:30:27
  53. 0hall7butane registered @ 2013-01-14 04:30:57, last login @ 2013-01-14 04:30:57
  54. 0shrimp80flare registered @ 2013-01-14 04:31:32, last login @ 2013-01-14 04:31:32
  55. 0chordraven0 registered @ 2013-01-14 04:32:12, last login @ 2013-01-14 04:32:12
  56. 0crazyangel registered @ 2013-01-14 04:32:15, last login @ 2013-01-14 04:32:15
  57. 0thumbcold69 registered @ 2013-01-14 04:32:20, last login @ 2013-01-14 04:32:20
  58. 0temper44celery registered @ 2013-01-14 04:32:42, last login @ 2013-01-14 04:32:42
  59. 0cementbanana30 registered @ 2013-01-14 04:34:22, last login @ 2013-01-14 04:34:22
  60. 0jumpthumb70 registered @ 2013-01-14 04:35:37, last login @ 2013-01-14 04:35:37
  61. 0gardenpaint1 registered @ 2013-01-14 04:37:04, last login @ 2013-01-14 04:37:04
  62. 0curvecry2 registered @ 2013-01-14 04:38:58, last login @ 2013-01-14 04:38:58
  63. 0pumpcone00 registered @ 2013-01-14 04:39:08, last login @ 2013-01-14 04:39:08
  64. 0panty54earth registered @ 2013-01-14 04:41:12, last login @ 2013-01-14 04:41:12
  65. 0lawyer8arrow registered @ 2013-01-14 04:41:52, last login @ 2013-01-14 04:41:52
  66. 0rewardhome88 registered @ 2013-01-14 04:46:50, last login @ 2013-01-14 04:46:50
  67. 0sampan9spear registered @ 2013-01-14 04:47:27, last login @ 2013-01-14 04:47:27
  68. 0beautytwist6 registered @ 2013-01-14 04:47:37, last login @ 2013-01-14 04:47:37
  69. 0house93wish registered @ 2013-01-14 04:48:17, last login @ 2013-01-14 04:48:17
  70. 0dry95garlic registered @ 2013-01-14 04:49:04, last login @ 2013-01-14 04:49:04
  71. 0barge5girl registered @ 2013-01-14 04:50:19, last login @ 2013-01-14 04:50:19
  72. 0traindock8 registered @ 2013-01-14 04:50:30, last login @ 2013-01-14 04:50:30
  73. 0lumber14ox registered @ 2013-01-14 04:51:49, last login @ 2013-01-14 04:51:49
  74. 0enemytyvek15 registered @ 2013-01-14 04:51:58, last login @ 2013-01-14 04:51:58
  75. 0drillhumor8 registered @ 2013-01-14 04:52:26, last login @ 2013-01-14 04:52:26
  76. 0cougar17spear registered @ 2013-01-14 04:53:19, last login @ 2013-01-14 04:53:19
  77. 0singer8client registered @ 2013-01-14 04:54:06, last login @ 2013-01-14 04:54:06
  78. 0cycleemery0 registered @ 2013-01-14 04:55:43, last login @ 2013-01-14 04:55:43
  79. 0oilspot0 registered @ 2013-01-14 04:56:24, last login @ 2013-01-14 04:56:24
  80. 0lead50steam registered @ 2013-01-14 04:58:00, last login @ 2013-01-14 04:58:00
  81. 0single3quilt registered @ 2013-01-14 04:59:23, last login @ 2013-01-14 04:59:23
  82. 0onion2lion registered @ 2013-01-14 05:01:53, last login @ 2013-01-14 05:01:53
  83. 0beechcrayon54 registered @ 2013-01-14 05:02:13, last login @ 2013-01-14 05:02:13
  84. 0move58italy registered @ 2013-01-14 05:02:17, last login @ 2013-01-14 05:02:17
  85. 0lathecocoa8 registered @ 2013-01-14 05:02:18, last login @ 2013-01-14 05:02:18
  86. 0wallet98area registered @ 2013-01-14 05:02:59, last login @ 2013-01-14 05:02:59
  87. 0wealthcard08 registered @ 2013-01-14 05:03:39, last login @ 2013-01-14 05:03:39
  88. 0goldlist56 registered @ 2013-01-14 05:03:39, last login @ 2013-01-14 05:03:39
  89. 0peararch97 registered @ 2013-01-14 05:06:20, last login @ 2013-01-14 05:06:20
  90. 0incomealloy0 registered @ 2013-01-14 05:06:25, last login @ 2013-01-14 05:06:25
  91. 0soy51bugle registered @ 2013-01-14 05:06:28, last login @ 2013-01-14 05:40:47
  92. 0sekshatlari77 registered @ 2013-01-14 05:09:21, last login @ 2013-01-14 05:22:55
  93. 0bill6libra registered @ 2013-01-14 05:10:03, last login @ 2013-01-14 05:10:03
  94. 0seatwhorl3 registered @ 2013-01-14 05:12:54, last login @ 2013-01-14 05:12:54
  95. 0jail57makeup registered @ 2013-01-14 05:13:16, last login @ 2013-01-14 05:13:16
  96. 0Krafferty registered @ 2013-01-14 05:13:40, last login @ 2013-01-14 05:13:40
  97. 0bottle98toast registered @ 2013-01-14 05:15:31, last login @ 2013-01-14 05:15:31
  98. 0birth70parade registered @ 2013-01-14 05:15:36, last login @ 2013-01-14 05:15:36
  99. 0plow5draw registered @ 2013-01-14 05:15:37, last login @ 2013-01-14 05:15:37
  100. 0owlstew22 registered @ 2013-01-14 05:16:08, last login @ 2013-01-14 05:16:08
  101. 0rodturret5 registered @ 2013-01-14 05:16:41, last login @ 2013-01-14 05:16:41

More...

[5416] [5415] [5414] [5413] [5412] [5411] [5410] [5409] [5408] [5407] [5406] [5405] [5404] [5403] [5402] [5401] [5400] [5399] [5398] [5397] ...[1]
Back to Top